sensor_id;sensor_type;location;lat;lon;timestamp;pressure;altitude;pressure_sealevel;temperature;humidity
49393;BME280;35268;42.642;23.308;2024-03-02T00:00:15;93320.50;;;8.37;77.80
49393;BME280;35268;42.642;23.308;2024-03-02T00:02:44;93329.53;;;8.36;77.79
49393;BME280;35268;42.642;23.308;2024-03-02T00:05:20;93336.09;;;8.30;78.15
49393;BME280;35268;42.642;23.308;2024-03-02T00:07:52;93332.38;;;8.31;78.29
49393;BME280;35268;42.642;23.308;2024-03-02T00:10:20;93331.25;;;8.32;78.37
49393;BME280;35268;42.642;23.308;2024-03-02T00:12:50;93339.22;;;8.32;78.67
49393;BME280;35268;42.642;23.308;2024-03-02T00:17:56;93326.59;;;8.29;78.33
49393;BME280;35268;42.642;23.308;2024-03-02T00:20:22;93328.44;;;8.19;78.68
49393;BME280;35268;42.642;23.308;2024-03-02T00:22:49;93324.22;;;8.18;78.83
49393;BME280;35268;42.642;23.308;2024-03-02T00:25:15;93327.97;;;8.17;79.10
49393;BME280;35268;42.642;23.308;2024-03-02T00:27:40;93325.78;;;8.11;79.53
49393;BME280;35268;42.642;23.308;2024-03-02T00:33:01;93332.81;;;8.15;79.58
49393;BME280;35268;42.642;23.308;2024-03-02T00:35:26;93332.81;;;8.15;79.38
49393;BME280;35268;42.642;23.308;2024-03-02T00:37:51;93328.25;;;8.16;79.60
49393;BME280;35268;42.642;23.308;2024-03-02T00:40:17;93336.09;;;8.21;79.66
49393;BME280;35268;42.642;23.308;2024-03-02T00:42:42;93329.38;;;8.23;79.32
49393;BME280;35268;42.642;23.308;2024-03-02T00:45:08;93324.69;;;8.29;79.44
49393;BME280;35268;42.642;23.308;2024-03-02T00:47:38;93324.06;;;8.32;79.27
49393;BME280;35268;42.642;23.308;2024-03-02T00:50:05;93324.59;;;8.43;78.85
49393;BME280;35268;42.642;23.308;2024-03-02T00:52:30;93326.13;;;8.44;78.80
49393;BME280;35268;42.642;23.308;2024-03-02T00:54:58;93323.81;;;8.51;78.62
49393;BME280;35268;42.642;23.308;2024-03-02T00:57:24;93326.94;;;8.53;78.14
49393;BME280;35268;42.642;23.308;2024-03-02T00:59:51;93338.97;;;8.59;78.24
49393;BME280;35268;42.642;23.308;2024-03-02T01:02:16;93326.16;;;8.61;77.91
49393;BME280;35268;42.642;23.308;2024-03-02T01:04:42;93326.47;;;8.60;78.09
49393;BME280;35268;42.642;23.308;2024-03-02T01:07:07;93322.56;;;8.57;78.28
49393;BME280;35268;42.642;23.308;2024-03-02T01:09:32;93323.97;;;8.63;78.07
49393;BME280;35268;42.642;23.308;2024-03-02T01:11:58;93323.31;;;8.67;77.83
49393;BME280;35268;42.642;23.308;2024-03-02T01:14:23;93315.66;;;8.56;77.60
49393;BME280;35268;42.642;23.308;2024-03-02T01:16:49;93316.63;;;8.43;78.29
49393;BME280;35268;42.642;23.308;2024-03-02T01:19:14;93316.91;;;8.33;79.13
49393;BME280;35268;42.642;23.308;2024-03-02T01:21:40;93306.72;;;8.17;79.10
49393;BME280;35268;42.642;23.308;2024-03-02T01:24:06;93305.31;;;8.11;79.65
49393;BME280;35268;42.642;23.308;2024-03-02T01:26:31;93309.06;;;8.10;80.00
49393;BME280;35268;42.642;23.308;2024-03-02T01:28:56;93303.75;;;8.19;79.99
49393;BME280;35268;42.642;23.308;2024-03-02T01:31:22;93305.47;;;8.23;79.66
49393;BME280;35268;42.642;23.308;2024-03-02T01:33:47;93304.53;;;8.19;79.52
49393;BME280;35268;42.642;23.308;2024-03-02T01:36:12;93305.66;;;8.18;79.27
49393;BME280;35268;42.642;23.308;2024-03-02T01:38:38;93300.63;;;8.17;79.39
49393;BME280;35268;42.642;23.308;2024-03-02T01:41:04;93300.16;;;8.15;78.93
49393;BME280;35268;42.642;23.308;2024-03-02T01:43:29;93303.44;;;8.03;79.14
49393;BME280;35268;42.642;23.308;2024-03-02T01:45:55;93302.34;;;8.04;79.81
49393;BME280;35268;42.642;23.308;2024-03-02T01:48:21;93295.81;;;8.10;79.48
49393;BME280;35268;42.642;23.308;2024-03-02T01:50:47;93299.06;;;8.16;79.09
49393;BME280;35268;42.642;23.308;2024-03-02T01:53:13;93292.50;;;8.22;79.55
49393;BME280;35268;42.642;23.308;2024-03-02T01:55:38;93290.78;;;8.26;79.95
49393;BME280;35268;42.642;23.308;2024-03-02T01:58:03;93291.44;;;8.32;79.98
49393;BME280;35268;42.642;23.308;2024-03-02T02:00:29;93287.41;;;8.43;80.07
49393;BME280;35268;42.642;23.308;2024-03-02T02:02:55;93291.94;;;8.51;79.05
49393;BME280;35268;42.642;23.308;2024-03-02T02:05:20;93292.72;;;8.52;78.74
49393;BME280;35268;42.642;23.308;2024-03-02T02:07:46;93303.03;;;8.53;79.13
49393;BME280;35268;42.642;23.308;2024-03-02T02:10:12;93294.75;;;8.55;79.16
49393;BME280;35268;42.642;23.308;2024-03-02T02:12:38;93295.06;;;8.62;79.25
49393;BME280;35268;42.642;23.308;2024-03-02T02:15:21;93293.78;;;8.68;78.95
49393;BME280;35268;42.642;23.308;2024-03-02T02:17:46;93300.19;;;8.76;78.69
49393;BME280;35268;42.642;23.308;2024-03-02T02:20:12;93290.50;;;8.80;78.42
49393;BME280;35268;42.642;23.308;2024-03-02T02:22:37;93290.97;;;8.82;78.41
49393;BME280;35268;42.642;23.308;2024-03-02T02:25:03;93292.34;;;8.88;78.09
49393;BME280;35268;42.642;23.308;2024-03-02T02:27:28;93299.22;;;8.89;77.89
49393;BME280;35268;42.642;23.308;2024-03-02T02:29:54;93296.25;;;8.91;77.87
49393;BME280;35268;42.642;23.308;2024-03-02T02:32:21;93287.97;;;8.92;77.85
49393;BME280;35268;42.642;23.308;2024-03-02T02:34:46;93285.47;;;8.96;77.82
49393;BME280;35268;42.642;23.308;2024-03-02T02:37:12;93289.53;;;8.93;77.76
49393;BME280;35268;42.642;23.308;2024-03-02T02:39:37;93288.91;;;8.96;77.58
49393;BME280;35268;42.642;23.308;2024-03-02T02:42:03;93294.03;;;9.01;77.54
49393;BME280;35268;42.642;23.308;2024-03-02T02:44:28;93303.59;;;9.02;77.37
49393;BME280;35268;42.642;23.308;2024-03-02T02:46:53;93299.03;;;9.03;77.46
49393;BME280;35268;42.642;23.308;2024-03-02T02:49:19;93307.47;;;9.05;77.53
49393;BME280;35268;42.642;23.308;2024-03-02T02:51:44;93304.66;;;9.01;77.36
49393;BME280;35268;42.642;23.308;2024-03-02T02:54:09;93292.50;;;9.00;77.36
49393;BME280;35268;42.642;23.308;2024-03-02T02:56:35;93299.69;;;9.00;77.44
49393;BME280;35268;42.642;23.308;2024-03-02T02:59:00;93285.63;;;8.91;77.65
49393;BME280;35268;42.642;23.308;2024-03-02T03:01:26;93298.44;;;8.97;77.49
49393;BME280;35268;42.642;23.308;2024-03-02T03:03:52;93298.44;;;8.97;77.37
49393;BME280;35268;42.642;23.308;2024-03-02T03:06:17;93296.69;;;9.01;77.17
49393;BME280;35268;42.642;23.308;2024-03-02T03:08:42;93291.25;;;8.98;77.20
49393;BME280;35268;42.642;23.308;2024-03-02T03:11:08;93296.41;;;8.94;77.14
49393;BME280;35268;42.642;23.308;2024-03-02T03:13:34;93300.63;;;8.87;77.53
49393;BME280;35268;42.642;23.308;2024-03-02T03:16:00;93294.25;;;8.79;77.81
49393;BME280;35268;42.642;23.308;2024-03-02T03:18:25;93290.34;;;8.76;77.93
49393;BME280;35268;42.642;23.308;2024-03-02T03:20:50;93293.00;;;8.76;78.20
49393;BME280;35268;42.642;23.308;2024-03-02T03:23:16;93282.38;;;8.68;78.28
49393;BME280;35268;42.642;23.308;2024-03-02T03:25:42;93290.81;;;8.70;78.52
49393;BME280;35268;42.642;23.308;2024-03-02T03:28:08;93295.38;;;8.69;78.53
49393;BME280;35268;42.642;23.308;2024-03-02T03:30:37;93302.53;;;8.69;78.91
49393;BME280;35268;42.642;23.308;2024-03-02T03:33:03;93302.72;;;8.63;78.76
49393;BME280;35268;42.642;23.308;2024-03-02T03:35:28;93294.13;;;8.58;78.96
49393;BME280;35268;42.642;23.308;2024-03-02T03:37:54;93295.53;;;8.55;79.17
49393;BME280;35268;42.642;23.308;2024-03-02T03:40:19;93300.84;;;8.55;79.32
49393;BME280;35268;42.642;23.308;2024-03-02T03:42:45;93306.16;;;8.55;79.47
49393;BME280;35268;42.642;23.308;2024-03-02T03:45:10;93302.09;;;8.58;79.56
49393;BME280;35268;42.642;23.308;2024-03-02T03:47:36;93307.41;;;8.49;79.54
49393;BME280;35268;42.642;23.308;2024-03-02T03:50:01;93300.84;;;8.55;79.42
49393;BME280;35268;42.642;23.308;2024-03-02T03:52:29;93301.94;;;8.63;79.62
49393;BME280;35268;42.642;23.308;2024-03-02T03:54:55;93305.19;;;8.69;79.74
49393;BME280;35268;42.642;23.308;2024-03-02T03:57:20;93303.94;;;8.75;79.41
49393;BME280;35268;42.642;23.308;2024-03-02T04:00:13;93297.25;;;8.60;79.61
49393;BME280;35268;42.642;23.308;2024-03-02T04:02:39;93304.28;;;8.47;80.12
49393;BME280;35268;42.642;23.308;2024-03-02T04:05:05;93304.56;;;8.37;80.46
49393;BME280;35268;42.642;23.308;2024-03-02T04:07:35;93304.41;;;8.24;81.07
49393;BME280;35268;42.642;23.308;2024-03-02T04:10:09;93304.06;;;8.17;81.72
49393;BME280;35268;42.642;23.308;2024-03-02T04:12:36;93295.34;;;8.17;82.02
49393;BME280;35268;42.642;23.308;2024-03-02T04:15:03;93302.66;;;8.11;82.04
49393;BME280;35268;42.642;23.308;2024-03-02T04:17:29;93301.56;;;8.03;82.18
49393;BME280;35268;42.642;23.308;2024-03-02T04:19:56;93298.28;;;7.98;83.01
49393;BME280;35268;42.642;23.308;2024-03-02T04:22:21;93297.47;;;7.97;83.23
49393;BME280;35268;42.642;23.308;2024-03-02T04:24:46;93291.88;;;7.99;83.28
49393;BME280;35268;42.642;23.308;2024-03-02T04:27:12;93294.84;;;8.06;83.48
49393;BME280;35268;42.642;23.308;2024-03-02T04:29:37;93307.38;;;8.14;83.21
49393;BME280;35268;42.642;23.308;2024-03-02T04:32:03;93309.53;;;8.21;82.89
49393;BME280;35268;42.642;23.308;2024-03-02T04:34:28;93307.06;;;8.24;82.92
49393;BME280;35268;42.642;23.308;2024-03-02T04:36:53;93306.88;;;8.30;82.68
49393;BME280;35268;42.642;23.308;2024-03-02T04:39:19;93297.06;;;8.39;82.57
49393;BME280;35268;42.642;23.308;2024-03-02T04:41:44;93302.72;;;8.46;82.29
49393;BME280;35268;42.642;23.308;2024-03-02T04:44:09;93307.88;;;8.51;82.24
49393;BME280;35268;42.642;23.308;2024-03-02T04:46:35;93316.00;;;8.55;82.12
49393;BME280;35268;42.642;23.308;2024-03-02T04:49:00;93307.41;;;8.58;81.87
49393;BME280;35268;42.642;23.308;2024-03-02T04:51:26;93307.56;;;8.61;81.56
49393;BME280;35268;42.642;23.308;2024-03-02T04:53:51;93309.91;;;8.63;81.09
49393;BME280;35268;42.642;23.308;2024-03-02T04:56:16;93303.47;;;8.64;80.79
49393;BME280;35268;42.642;23.308;2024-03-02T04:59:04;93314.59;;;8.66;80.76
49393;BME280;35268;42.642;23.308;2024-03-02T05:01:29;93309.56;;;8.64;80.56
49393;BME280;35268;42.642;23.308;2024-03-02T05:03:55;93310.19;;;8.70;80.42
49393;BME280;35268;42.642;23.308;2024-03-02T05:06:21;93309.25;;;8.75;80.74
49393;BME280;35268;42.642;23.308;2024-03-02T05:08:47;93310.97;;;8.79;81.11
49393;BME280;35268;42.642;23.308;2024-03-02T05:11:13;93312.69;;;8.84;81.27
49393;BME280;35268;42.642;23.308;2024-03-02T05:13:57;93311.59;;;8.85;80.84
49393;BME280;35268;42.642;23.308;2024-03-02T05:16:22;93312.69;;;8.84;80.75
49393;BME280;35268;42.642;23.308;2024-03-02T05:18:47;93319.09;;;8.83;80.81
49393;BME280;35268;42.642;23.308;2024-03-02T05:21:13;93321.16;;;8.77;80.85
49393;BME280;35268;42.642;23.308;2024-03-02T05:23:38;93331.63;;;8.74;80.92
49393;BME280;35268;42.642;23.308;2024-03-02T05:26:04;93325.97;;;8.67;81.65
49393;BME280;35268;42.642;23.308;2024-03-02T05:28:29;93336.00;;;8.61;82.15
49393;BME280;35268;42.642;23.308;2024-03-02T05:30:54;93343.81;;;8.57;82.61
49393;BME280;35268;42.642;23.308;2024-03-02T05:33:20;93333.97;;;8.58;82.84
49393;BME280;35268;42.642;23.308;2024-03-02T05:35:47;93343.47;;;8.50;83.04
49393;BME280;35268;42.642;23.308;2024-03-02T05:38:15;93339.88;;;8.46;83.33
49393;BME280;35268;42.642;23.308;2024-03-02T05:40:40;93348.03;;;8.41;83.33
49393;BME280;35268;42.642;23.308;2024-03-02T05:43:05;93348.13;;;8.36;83.66
49393;BME280;35268;42.642;23.308;2024-03-02T05:45:31;93359.69;;;8.31;83.96
49393;BME280;35268;42.642;23.308;2024-03-02T05:47:56;93352.66;;;8.27;84.04
49393;BME280;35268;42.642;23.308;2024-03-02T05:50:22;93348.59;;;8.20;84.45
49393;BME280;35268;42.642;23.308;2024-03-02T05:52:47;93361.06;;;8.20;84.78
49393;BME280;35268;42.642;23.308;2024-03-02T05:55:13;93362.34;;;8.22;85.11
49393;BME280;35268;42.642;23.308;2024-03-02T05:57:38;93358.28;;;8.25;84.99
49393;BME280;35268;42.642;23.308;2024-03-02T06:00:09;93360.63;;;8.27;85.14
49393;BME280;35268;42.642;23.308;2024-03-02T06:02:39;93354.69;;;8.30;84.87
49393;BME280;35268;42.642;23.308;2024-03-02T06:05:04;93359.84;;;8.35;85.07
49393;BME280;35268;42.642;23.308;2024-03-02T06:07:30;93358.66;;;8.41;85.09
49393;BME280;35268;42.642;23.308;2024-03-02T06:09:55;93354.75;;;8.47;85.06
49393;BME280;35268;42.642;23.308;2024-03-02T06:12:20;93360.19;;;8.51;84.90
49393;BME280;35268;42.642;23.308;2024-03-02T06:14:46;93359.44;;;8.59;84.92
49393;BME280;35268;42.642;23.308;2024-03-02T06:17:11;93352.72;;;8.61;84.97
49393;BME280;35268;42.642;23.308;2024-03-02T06:19:37;93357.09;;;8.57;85.04
49393;BME280;35268;42.642;23.308;2024-03-02T06:22:02;93351.59;;;8.62;84.89
49393;BME280;35268;42.642;23.308;2024-03-02T06:24:27;93357.38;;;8.64;85.08
49393;BME280;35268;42.642;23.308;2024-03-02T06:26:53;93359.13;;;8.69;85.35
49393;BME280;35268;42.642;23.308;2024-03-02T06:29:18;93356.16;;;8.79;85.15
49393;BME280;35268;42.642;23.308;2024-03-02T06:31:43;93355.22;;;8.84;85.05
49393;BME280;35268;42.642;23.308;2024-03-02T06:34:09;93364.91;;;8.71;84.51
49393;BME280;35268;42.642;23.308;2024-03-02T06:36:34;93371.31;;;8.79;84.17
49393;BME280;35268;42.642;23.308;2024-03-02T06:39:00;93374.28;;;8.86;84.06
49393;BME280;35268;42.642;23.308;2024-03-02T06:41:25;93373.03;;;8.92;83.79
49393;BME280;35268;42.642;23.308;2024-03-02T06:43:52;93368.66;;;8.96;83.27
49393;BME280;35268;42.642;23.308;2024-03-02T06:46:25;93370.19;;;8.97;82.69
49393;BME280;35268;42.642;23.308;2024-03-02T06:48:50;93369.56;;;9.00;82.85
49393;BME280;35268;42.642;23.308;2024-03-02T06:51:15;93372.22;;;9.09;82.34
49393;BME280;35268;42.642;23.308;2024-03-02T06:53:41;93367.53;;;9.15;82.03
49393;BME280;35268;42.642;23.308;2024-03-02T06:56:07;93378.63;;;9.17;82.00
49393;BME280;35268;42.642;23.308;2024-03-02T06:58:33;93390.03;;;9.17;82.00
49393;BME280;35268;42.642;23.308;2024-03-02T07:00:58;93377.38;;;9.23;81.73
49393;BME280;35268;42.642;23.308;2024-03-02T07:03:25;93380.03;;;9.23;81.61
49393;BME280;35268;42.642;23.308;2024-03-02T07:05:51;93378.94;;;9.24;81.50
49393;BME280;35268;42.642;23.308;2024-03-02T07:08:16;93378.75;;;9.29;81.09
49393;BME280;35268;42.642;23.308;2024-03-02T07:10:42;93375.47;;;9.32;81.23
49393;BME280;35268;42.642;23.308;2024-03-02T07:13:07;93378.13;;;9.41;81.31
49393;BME280;35268;42.642;23.308;2024-03-02T07:15:32;93384.38;;;9.45;81.29
49393;BME280;35268;42.642;23.308;2024-03-02T07:18:27;93386.38;;;9.48;81.06
49393;BME280;35268;42.642;23.308;2024-03-02T07:20:52;93386.22;;;9.53;80.29
49393;BME280;35268;42.642;23.308;2024-03-02T07:23:18;93389.81;;;9.57;79.88
49393;BME280;35268;42.642;23.308;2024-03-02T07:25:44;93388.84;;;9.62;79.61
49393;BME280;35268;42.642;23.308;2024-03-02T07:28:10;93389.63;;;9.62;79.71
49393;BME280;35268;42.642;23.308;2024-03-02T07:30:35;93387.88;;;9.67;79.30
49393;BME280;35268;42.642;23.308;2024-03-02T07:33:03;93392.91;;;9.68;79.62
49393;BME280;35268;42.642;23.308;2024-03-02T07:35:29;93386.16;;;9.71;79.33
49393;BME280;35268;42.642;23.308;2024-03-02T07:37:56;93396.78;;;9.71;79.33
49393;BME280;35268;42.642;23.308;2024-03-02T07:40:22;93389.28;;;9.73;78.96
49393;BME280;35268;42.642;23.308;2024-03-02T07:42:48;93399.28;;;9.76;78.65
49393;BME280;35268;42.642;23.308;2024-03-02T07:45:13;93396.16;;;9.74;78.83
49393;BME280;35268;42.642;23.308;2024-03-02T07:47:39;93400.06;;;9.76;78.47
49393;BME280;35268;42.642;23.308;2024-03-02T07:50:05;93406.16;;;9.77;78.66
49393;BME280;35268;42.642;23.308;2024-03-02T07:52:32;93404.75;;;9.79;78.33
49393;BME280;35268;42.642;23.308;2024-03-02T07:54:57;93406.97;;;9.77;78.37
49393;BME280;35268;42.642;23.308;2024-03-02T07:57:23;93407.09;;;9.81;78.33
49393;BME280;35268;42.642;23.308;2024-03-02T07:59:48;93400.38;;;9.83;78.20
49393;BME280;35268;42.642;23.308;2024-03-02T08:02:14;93411.94;;;9.88;78.19
49393;BME280;35268;42.642;23.308;2024-03-02T08:04:40;93410.38;;;9.87;78.31
49393;BME280;35268;42.642;23.308;2024-03-02T08:07:06;93418.03;;;9.88;78.18
49393;BME280;35268;42.642;23.308;2024-03-02T08:09:31;93416.50;;;9.87;78.50
49393;BME280;35268;42.642;23.308;2024-03-02T08:11:56;93421.47;;;9.89;78.48
49393;BME280;35268;42.642;23.308;2024-03-02T08:14:23;93416.16;;;9.89;78.57
49393;BME280;35268;42.642;23.308;2024-03-02T08:16:49;93421.63;;;9.92;78.46
49393;BME280;35268;42.642;23.308;2024-03-02T08:19:14;93414.41;;;9.93;78.51
49393;BME280;35268;42.642;23.308;2024-03-02T08:21:40;93423.19;;;9.93;78.57
49393;BME280;35268;42.642;23.308;2024-03-02T08:24:06;93418.34;;;9.95;78.83
49393;BME280;35268;42.642;23.308;2024-03-02T08:26:31;93419.13;;;9.96;78.69
49393;BME280;35268;42.642;23.308;2024-03-02T08:28:58;93411.13;;;9.96;78.52
49393;BME280;35268;42.642;23.308;2024-03-02T08:31:23;93418.47;;;9.99;78.32
49393;BME280;35268;42.642;23.308;2024-03-02T08:33:49;93410.81;;;9.97;78.64
49393;BME280;35268;42.642;23.308;2024-03-02T08:36:14;93410.94;;;10.01;78.52
49393;BME280;35268;42.642;23.308;2024-03-02T08:38:40;93420.19;;;10.03;78.63
49393;BME280;35268;42.642;23.308;2024-03-02T08:41:06;93409.34;;;10.09;78.71
49393;BME280;35268;42.642;23.308;2024-03-02T08:43:32;93408.38;;;10.13;78.86
49393;BME280;35268;42.642;23.308;2024-03-02T08:45:58;93408.00;;;10.23;78.37
49393;BME280;35268;42.642;23.308;2024-03-02T08:48:23;93403.59;;;10.28;78.34
49393;BME280;35268;42.642;23.308;2024-03-02T08:50:49;93410.34;;;10.34;78.14
49393;BME280;35268;42.642;23.308;2024-03-02T08:53:14;93411.38;;;10.41;77.85
49393;BME280;35268;42.642;23.308;2024-03-02T08:55:46;93408.94;;;10.57;77.05
49393;BME280;35268;42.642;23.308;2024-03-02T08:58:12;93413.13;;;10.67;77.20
49393;BME280;35268;42.642;23.308;2024-03-02T09:00:38;93402.09;;;10.77;77.15
49393;BME280;35268;42.642;23.308;2024-03-02T09:03:03;93416.56;;;10.89;77.01
49393;BME280;35268;42.642;23.308;2024-03-02T09:05:29;93411.97;;;10.98;76.80
49393;BME280;35268;42.642;23.308;2024-03-02T09:07:54;93418.78;;;11.08;74.38
49393;BME280;35268;42.642;23.308;2024-03-02T09:10:20;93414.09;;;11.04;74.37
49393;BME280;35268;42.642;23.308;2024-03-02T09:12:46;93411.69;;;11.12;74.19
49393;BME280;35268;42.642;23.308;2024-03-02T09:15:11;93419.81;;;11.15;74.15
49393;BME280;35268;42.642;23.308;2024-03-02T09:17:37;93419.50;;;11.17;73.77
49393;BME280;35268;42.642;23.308;2024-03-02T09:20:03;93419.31;;;11.22;73.39
49393;BME280;35268;42.642;23.308;2024-03-02T09:22:29;93424.31;;;11.23;73.50
49393;BME280;35268;42.642;23.308;2024-03-02T09:24:55;93427.09;;;11.27;72.97
49393;BME280;35268;42.642;23.308;2024-03-02T09:27:21;93427.88;;;11.28;72.73
49393;BME280;35268;42.642;23.308;2024-03-02T09:29:47;93425.09;;;11.24;72.36
49393;BME280;35268;42.642;23.308;2024-03-02T09:32:16;93432.63;;;11.22;72.14
49393;BME280;35268;42.642;23.308;2024-03-02T09:34:42;93424.19;;;11.20;72.36
49393;BME280;35268;42.642;23.308;2024-03-02T09:37:08;93427.16;;;11.18;72.29
49393;BME280;35268;42.642;23.308;2024-03-02T09:39:34;93438.59;;;11.19;72.34
49393;BME280;35268;42.642;23.308;2024-03-02T09:42:00;93425.03;;;11.12;72.08
49393;BME280;35268;42.642;23.308;2024-03-02T09:44:26;93434.13;;;11.11;71.94
49393;BME280;35268;42.642;23.308;2024-03-02T09:46:52;93425.53;;;10.84;71.79
49393;BME280;35268;42.642;23.308;2024-03-02T09:49:17;93433.69;;;10.88;71.98
49393;BME280;35268;42.642;23.308;2024-03-02T09:51:47;93428.16;;;10.93;72.03
49393;BME280;35268;42.642;23.308;2024-03-02T09:54:15;93439.59;;;10.93;72.35
49393;BME280;35268;42.642;23.308;2024-03-02T09:56:44;93435.19;;;10.97;71.77
49393;BME280;35268;42.642;23.308;2024-03-02T09:59:12;93432.25;;;10.90;71.59
49393;BME280;35268;42.642;23.308;2024-03-02T10:01:55;93438.03;;;10.92;71.42
49393;BME280;35268;42.642;23.308;2024-03-02T10:04:21;93434.47;;;10.88;71.54
49393;BME280;35268;42.642;23.308;2024-03-02T10:06:46;93436.81;;;10.90;71.85
49393;BME280;35268;42.642;23.308;2024-03-02T10:09:26;93436.22;;;10.84;72.19
49393;BME280;35268;42.642;23.308;2024-03-02T10:11:52;93429.91;;;10.68;72.62
49393;BME280;35268;42.642;23.308;2024-03-02T10:14:17;93436.50;;;10.61;73.35
49393;BME280;35268;42.642;23.308;2024-03-02T10:16:44;93428.13;;;10.51;74.24
49393;BME280;35268;42.642;23.308;2024-03-02T10:19:23;93432.19;;;10.48;74.82
49393;BME280;35268;42.642;23.308;2024-03-02T10:21:53;93423.09;;;10.49;75.58
49393;BME280;35268;42.642;23.308;2024-03-02T10:24:22;93425.47;;;10.51;76.02
49393;BME280;35268;42.642;23.308;2024-03-02T10:26:49;93435.66;;;10.49;76.32
49393;BME280;35268;42.642;23.308;2024-03-02T10:29:15;93422.19;;;10.45;76.77
49393;BME280;35268;42.642;23.308;2024-03-02T10:31:42;93427.53;;;10.45;77.35
49393;BME280;35268;42.642;23.308;2024-03-02T10:34:09;93430.50;;;10.43;77.73
49393;BME280;35268;42.642;23.308;2024-03-02T10:36:36;93431.47;;;10.39;77.71
49393;BME280;35268;42.642;23.308;2024-03-02T10:39:05;93422.09;;;10.33;77.67
49393;BME280;35268;42.642;23.308;2024-03-02T10:41:35;93427.25;;;10.29;77.75
49393;BME280;35268;42.642;23.308;2024-03-02T10:44:05;93431.34;;;10.27;78.14
49393;BME280;35268;42.642;23.308;2024-03-02T10:46:33;93428.13;;;10.12;78.67
49393;BME280;35268;42.642;23.308;2024-03-02T10:49:03;93421.41;;;10.06;79.02
49393;BME280;35268;42.642;23.308;2024-03-02T10:51:33;93414.50;;;10.14;79.19
49393;BME280;35268;42.642;23.308;2024-03-02T10:53:59;93414.03;;;10.12;79.42
49393;BME280;35268;42.642;23.308;2024-03-02T10:56:39;93421.69;;;10.13;79.31
49393;BME280;35268;42.642;23.308;2024-03-02T11:01:58;93412.91;;;10.13;79.88
49393;BME280;35268;42.642;23.308;2024-03-02T11:04:26;93418.25;;;10.13;79.87
49393;BME280;35268;42.642;23.308;2024-03-02T11:07:04;93425.63;;;10.07;79.69
49393;BME280;35268;42.642;23.308;2024-03-02T11:09:33;93413.94;;;9.99;79.52
49393;BME280;35268;42.642;23.308;2024-03-02T11:14:31;93421.81;;;9.87;80.07
49393;BME280;35268;42.642;23.308;2024-03-02T11:16:59;93408.81;;;9.86;80.22
49393;BME280;35268;42.642;23.308;2024-03-02T11:19:26;93411.63;;;9.89;80.35
49393;BME280;35268;42.642;23.308;2024-03-02T11:21:53;93405.19;;;9.90;80.98
49393;BME280;35268;42.642;23.308;2024-03-02T11:26:47;93408.56;;;10.08;80.92
49393;BME280;35268;42.642;23.308;2024-03-02T11:32:04;93405.09;;;10.16;80.22
49393;BME280;35268;42.642;23.308;2024-03-02T11:34:34;93412.16;;;10.12;80.05
49393;BME280;35268;42.642;23.308;2024-03-02T11:37:03;93400.84;;;10.15;79.72
49393;BME280;35268;42.642;23.308;2024-03-02T11:39:29;93401.75;;;10.19;79.53
49393;BME280;35268;42.642;23.308;2024-03-02T11:41:58;93403.78;;;10.22;79.74
49393;BME280;35268;42.642;23.308;2024-03-02T11:44:27;93400.94;;;10.28;79.24
49393;BME280;35268;42.642;23.308;2024-03-02T11:46:59;93402.69;;;10.23;79.21
49393;BME280;35268;42.642;23.308;2024-03-02T11:49:38;93402.56;;;10.20;79.06
49393;BME280;35268;42.642;23.308;2024-03-02T11:52:05;93416.81;;;10.15;78.65
49393;BME280;35268;42.642;23.308;2024-03-02T11:54:33;93405.44;;;10.06;78.74
49393;BME280;35268;42.642;23.308;2024-03-02T11:57:01;93410.94;;;10.01;79.26
49393;BME280;35268;42.642;23.308;2024-03-02T11:59:28;93402.38;;;9.95;79.80
49393;BME280;35268;42.642;23.308;2024-03-02T12:01:54;93407.03;;;9.98;80.32
49393;BME280;35268;42.642;23.308;2024-03-02T12:04:21;93406.69;;;10.09;80.86
49393;BME280;35268;42.642;23.308;2024-03-02T12:06:48;93401.97;;;10.14;80.84
49393;BME280;35268;42.642;23.308;2024-03-02T12:10:00;93404.75;;;10.18;80.87
49393;BME280;35268;42.642;23.308;2024-03-02T12:12:26;93413.53;;;10.18;80.91
49393;BME280;35268;42.642;23.308;2024-03-02T12:14:52;93405.81;;;10.25;80.86
49393;BME280;35268;42.642;23.308;2024-03-02T12:17:20;93402.69;;;10.23;80.74
49393;BME280;35268;42.642;23.308;2024-03-02T12:19:46;93413.69;;;10.22;80.56
49393;BME280;35268;42.642;23.308;2024-03-02T12:22:11;93410.81;;;10.27;80.52
49393;BME280;35268;42.642;23.308;2024-03-02T12:24:37;93411.00;;;10.31;80.26
49393;BME280;35268;42.642;23.308;2024-03-02T12:27:03;93411.25;;;10.38;80.22
49393;BME280;35268;42.642;23.308;2024-03-02T12:29:29;93398.28;;;10.36;80.28
49393;BME280;35268;42.642;23.308;2024-03-02T12:31:55;93405.91;;;10.38;79.94
49393;BME280;35268;42.642;23.308;2024-03-02T12:34:22;93402.94;;;10.39;80.15
49393;BME280;35268;42.642;23.308;2024-03-02T12:36:48;93405.88;;;10.47;80.01
49393;BME280;35268;42.642;23.308;2024-03-02T12:39:20;93415.44;;;10.48;80.04
49393;BME280;35268;42.642;23.308;2024-03-02T12:41:49;93400.22;;;10.48;80.03
49393;BME280;35268;42.642;23.308;2024-03-02T12:44:16;93404.75;;;10.56;79.71
49393;BME280;35268;42.642;23.308;2024-03-02T12:46:42;93407.06;;;10.58;79.45
49393;BME280;35268;42.642;23.308;2024-03-02T12:49:09;93410.47;;;10.67;79.18
49393;BME280;35268;42.642;23.308;2024-03-02T12:51:36;93407.28;;;10.74;78.86
49393;BME280;35268;42.642;23.308;2024-03-02T12:54:02;93406.75;;;10.80;78.36
49393;BME280;35268;42.642;23.308;2024-03-02T12:56:29;93408.56;;;10.89;77.52
49393;BME280;35268;42.642;23.308;2024-03-02T12:58:55;93408.84;;;10.96;77.31
49393;BME280;35268;42.642;23.308;2024-03-02T13:01:20;93414.75;;;11.01;77.35
49393;BME280;35268;42.642;23.308;2024-03-02T13:03:49;93414.09;;;11.04;77.18
49393;BME280;35268;42.642;23.308;2024-03-02T13:06:16;93409.03;;;11.12;76.54
49393;BME280;35268;42.642;23.308;2024-03-02T13:08:42;93407.59;;;11.14;75.90
49393;BME280;35268;42.642;23.308;2024-03-02T13:11:07;93409.94;;;11.16;75.79